createdAt,value
2023-01-18T00:06:10.436Z,44.40
2023-01-18T00:16:19.998Z,44.30
2023-01-18T00:26:26.679Z,44.50
2023-01-18T00:36:35.234Z,44.40
2023-01-18T00:46:42.316Z,44.60
2023-01-18T00:56:50.605Z,44.90
2023-01-18T01:06:57.410Z,44.60
2023-01-18T01:17:22.368Z,44.60
2023-01-18T01:27:29.949Z,44.60
2023-01-18T01:37:39.440Z,44.60
2023-01-18T01:47:49.537Z,44.90
2023-01-18T01:58:04.009Z,44.90
2023-01-18T02:08:15.934Z,45.40
2023-01-18T02:18:29.066Z,44.80
2023-01-18T02:28:39.139Z,45.10
2023-01-18T02:38:48.936Z,45.20
2023-01-18T02:48:59.496Z,45.20
2023-01-18T02:59:11.048Z,45.30
2023-01-18T03:09:22.440Z,44.80
2023-01-18T03:19:58.184Z,45.10
2023-01-18T03:30:31.548Z,44.70
2023-01-18T03:40:38.636Z,44.30
2023-01-18T03:50:52.402Z,44.20
2023-01-18T04:00:59.260Z,44.30
2023-01-18T04:11:08.092Z,44.30
2023-01-18T04:21:14.820Z,44.30
2023-01-18T04:31:23.269Z,44.10
2023-01-18T04:41:30.113Z,43.90
2023-01-18T04:51:40.388Z,43.70
2023-01-18T05:01:47.166Z,43.70
2023-01-18T05:11:55.528Z,43.90
2023-01-18T05:22:02.438Z,44.00
2023-01-18T05:32:12.250Z,44.60
2023-01-18T05:42:18.928Z,44.80
2023-01-18T05:52:27.965Z,45.00
2023-01-18T06:02:54.293Z,45.10
2023-01-18T06:13:02.733Z,44.90
2023-01-18T06:23:09.448Z,44.90
2023-01-18T06:33:18.053Z,44.90
2023-01-18T06:43:24.987Z,45.00
2023-01-18T06:53:34.992Z,45.10
2023-01-18T07:03:42.910Z,46.20
2023-01-18T07:13:51.562Z,46.70
2023-01-18T07:23:59.015Z,46.70
2023-01-18T07:34:07.608Z,46.70
2023-01-18T07:44:15.076Z,46.20
2023-01-18T07:54:23.760Z,45.90
2023-01-18T08:04:30.460Z,45.60
2023-01-18T08:14:38.829Z,45.50
2023-01-18T08:24:45.591Z,45.20
2023-01-18T08:34:54.026Z,44.80
2023-01-18T08:45:01.339Z,44.70
2023-01-18T08:55:11.383Z,44.70
2023-01-18T09:05:18.251Z,44.60
2023-01-18T09:15:27.978Z,44.50
2023-01-18T09:25:34.716Z,44.40
2023-01-18T09:35:43.076Z,44.40
2023-01-18T09:45:50.844Z,44.30
2023-01-18T09:56:05.966Z,44.30
2023-01-18T10:06:16.419Z,44.30
2023-01-18T10:16:24.921Z,44.30
2023-01-18T10:26:34.019Z,44.20
2023-01-18T10:36:46.913Z,44.10
2023-01-18T10:46:59.430Z,43.90
2023-01-18T10:57:10.134Z,43.90
2023-01-18T11:07:17.184Z,43.90
2023-01-18T11:17:25.524Z,43.70
2023-01-18T11:27:33.285Z,43.70
2023-01-18T11:37:43.497Z,43.40
2023-01-18T11:47:59.141Z,43.20
2023-01-18T11:58:14.970Z,43.30
2023-01-18T12:08:33.182Z,43.20
2023-01-18T12:19:11.804Z,43.10
2023-01-18T12:29:50.546Z,43.10
2023-01-18T12:40:18.869Z,43.00
2023-01-18T12:50:29.032Z,43.10
2023-01-18T13:00:42.525Z,43.20
2023-01-18T13:10:53.237Z,43.00
2023-01-18T13:21:19.141Z,43.10
2023-01-18T13:31:34.798Z,43.00
2023-01-18T13:42:25.311Z,42.80
2023-01-18T13:52:36.296Z,42.70
2023-01-18T14:02:55.461Z,42.90
2023-01-18T14:13:06.992Z,43.00
2023-01-18T14:23:32.123Z,42.90
2023-01-18T14:33:42.193Z,43.00
2023-01-18T14:43:52.571Z,43.00
2023-01-18T14:54:05.626Z,43.00
2023-01-18T15:04:24.795Z,43.00
2023-01-18T15:14:34.933Z,43.10
2023-01-18T15:24:45.606Z,43.00
2023-01-18T15:34:53.730Z,40.40
2023-01-18T15:45:03.145Z,39.30
2023-01-18T15:55:21.098Z,41.40
2023-01-18T16:05:31.122Z,41.60
2023-01-18T16:15:37.863Z,40.20
2023-01-18T16:25:46.635Z,40.70
2023-01-18T16:35:53.335Z,41.80
2023-01-18T16:46:04.947Z,41.80
2023-01-18T16:56:15.805Z,41.60
2023-01-18T17:06:25.609Z,42.40
2023-01-18T17:16:32.375Z,42.10
2023-01-18T17:26:41.304Z,42.30
2023-01-18T17:36:48.233Z,42.60
2023-01-18T17:46:56.591Z,42.40
2023-01-18T17:57:03.339Z,42.30
2023-01-18T18:07:12.283Z,42.00
2023-01-18T18:17:18.956Z,42.00
2023-01-18T18:27:37.407Z,41.90
2023-01-18T18:37:53.802Z,41.80
2023-01-18T18:48:02.645Z,43.50
2023-01-18T18:58:12.507Z,44.40
2023-01-18T19:08:21.478Z,45.10
2023-01-18T19:18:29.940Z,45.50
2023-01-18T19:28:39.380Z,45.40
2023-01-18T19:38:50.762Z,44.50
2023-01-18T19:49:04.969Z,44.00
2023-01-18T19:59:12.224Z,43.50
2023-01-18T20:09:23.542Z,43.10
2023-01-18T20:19:34.022Z,43.20
2023-01-18T20:29:42.633Z,42.20
2023-01-18T20:39:53.276Z,41.90
2023-01-18T20:50:01.651Z,42.40
2023-01-18T21:00:10.118Z,40.90
2023-01-18T21:10:19.532Z,39.70
2023-01-18T21:20:30.765Z,39.40
2023-01-18T21:30:39.181Z,39.10
2023-01-18T21:40:46.091Z,39.10
2023-01-18T21:51:11.172Z,39.10
2023-01-18T22:01:19.784Z,39.40
2023-01-18T22:11:31.781Z,40.60
2023-01-18T22:21:38.539Z,38.60
2023-01-18T22:31:46.958Z,38.40
2023-01-18T22:41:53.678Z,39.30
2023-01-18T22:52:02.358Z,39.90
2023-01-18T23:02:09.008Z,40.00
2023-01-18T23:12:17.813Z,40.00
2023-01-18T23:22:24.489Z,40.60
2023-01-18T23:32:32.985Z,41.30
2023-01-18T23:42:56.253Z,40.50
2023-01-18T23:53:21.650Z,40.20
